createdAt,value
2018-12-15T00:00:00.219Z,1023.58
2018-12-15T00:00:40.771Z,1023.56
2018-12-15T00:01:21.444Z,1023.6
2018-12-15T00:02:02.934Z,1023.54
2018-12-15T00:02:43.502Z,1023.62
2018-12-15T00:03:24.052Z,1023.58
2018-12-15T00:04:04.610Z,1023.61
2018-12-15T00:04:45.157Z,1023.6
2018-12-15T00:05:25.742Z,1023.62
2018-12-15T00:06:06.291Z,1023.55
2018-12-15T00:06:46.856Z,1023.56
2018-12-15T00:07:27.411Z,1023.54
2018-12-15T00:08:07.974Z,1023.59
2018-12-15T00:08:48.509Z,1023.59
2018-12-15T00:09:29.074Z,1023.59
2018-12-15T00:10:09.635Z,1023.55
2018-12-15T00:10:50.206Z,1023.59
2018-12-15T00:11:30.770Z,1023.61
2018-12-15T00:12:11.321Z,1023.6
2018-12-15T00:12:51.901Z,1023.57
2018-12-15T00:13:32.454Z,1023.59
2018-12-15T00:14:13.019Z,1023.62
2018-12-15T00:14:53.571Z,1023.56
2018-12-15T00:15:34.133Z,1023.64
2018-12-15T00:16:14.683Z,1023.61
2018-12-15T00:16:55.239Z,1023.56
2018-12-15T00:17:35.795Z,1023.58
2018-12-15T00:18:16.361Z,1023.6
2018-12-15T00:18:56.905Z,1023.61
2018-12-15T00:19:37.471Z,1023.57
2018-12-15T00:20:18.028Z,1023.61
2018-12-15T00:20:58.645Z,1023.6
2018-12-15T00:21:39.287Z,1023.61
2018-12-15T00:22:19.832Z,1023.61
2018-12-15T00:23:00.398Z,1023.57
2018-12-15T00:23:40.953Z,1023.58
2018-12-15T00:24:21.498Z,1023.58
2018-12-15T00:25:02.050Z,1023.61
2018-12-15T00:25:42.632Z,1023.56
2018-12-15T00:26:23.217Z,1023.56
2018-12-15T00:27:03.833Z,1023.54
2018-12-15T00:27:44.349Z,1023.56
2018-12-15T00:28:24.912Z,1023.56
2018-12-15T00:29:05.468Z,1023.55
2018-12-15T00:29:46.032Z,1023.57
2018-12-15T00:30:26.591Z,1023.62
2018-12-15T00:31:07.145Z,1023.64
2018-12-15T00:31:47.691Z,1023.59
2018-12-15T00:32:28.256Z,1023.59
2018-12-15T00:33:08.824Z,1023.59
2018-12-15T00:33:49.401Z,1023.58
2018-12-15T00:34:29.951Z,1023.6
2018-12-15T00:35:10.523Z,1023.61
2018-12-15T00:35:51.061Z,1023.65
2018-12-15T00:36:31.674Z,1023.64
2018-12-15T00:37:12.175Z,1023.66
2018-12-15T00:37:52.734Z,1023.63
2018-12-15T00:38:33.282Z,1023.67
2018-12-15T00:39:13.839Z,1023.67
2018-12-15T00:39:54.395Z,1023.67
2018-12-15T00:40:34.946Z,1023.68
2018-12-15T00:41:15.496Z,1023.67
2018-12-15T00:41:56.057Z,1023.67
2018-12-15T00:42:36.618Z,1023.66
2018-12-15T00:43:17.179Z,1023.7
2018-12-15T00:43:57.740Z,1023.71
2018-12-15T00:44:38.396Z,1023.73
2018-12-15T00:45:18.883Z,1023.72
2018-12-15T00:45:59.430Z,1023.69
2018-12-15T00:46:39.981Z,1023.71
2018-12-15T00:47:20.521Z,1023.71
2018-12-15T00:48:01.084Z,1023.7
2018-12-15T00:48:41.633Z,1023.68
2018-12-15T00:49:22.193Z,1023.72
2018-12-15T00:50:02.738Z,1023.73
2018-12-15T00:50:43.296Z,1023.7
2018-12-15T00:51:23.838Z,1023.71
2018-12-15T00:52:04.417Z,1023.72
2018-12-15T00:52:45.014Z,1023.74
2018-12-15T00:53:25.571Z,1023.72
2018-12-15T00:54:06.139Z,1023.74
2018-12-15T00:54:46.690Z,1023.76
2018-12-15T00:55:27.251Z,1023.78
2018-12-15T00:56:07.798Z,1023.77
2018-12-15T00:56:48.348Z,1023.77
2018-12-15T00:57:28.905Z,1023.77
2018-12-15T00:58:09.460Z,1023.75
2018-12-15T00:58:50.032Z,1023.78
2018-12-15T00:59:30.585Z,1023.81
2018-12-15T01:00:11.138Z,1023.84
2018-12-15T01:00:51.713Z,1023.79
2018-12-15T01:01:32.273Z,1023.74
2018-12-15T01:02:12.833Z,1023.77
2018-12-15T01:02:53.382Z,1023.8
2018-12-15T01:03:33.944Z,1023.81
2018-12-15T01:04:14.495Z,1023.77
2018-12-15T01:04:55.056Z,1023.8
2018-12-15T01:05:35.606Z,1023.8
2018-12-15T01:06:16.156Z,1023.82
2018-12-15T01:06:56.708Z,1023.81
2018-12-15T01:07:37.263Z,1023.79
2018-12-15T01:08:17.827Z,1023.76
2018-12-15T01:08:58.378Z,1023.81
2018-12-15T01:09:38.941Z,1023.81
2018-12-15T01:10:19.487Z,1023.78
2018-12-15T01:11:00.052Z,1023.8
2018-12-15T01:11:40.600Z,1023.79
2018-12-15T01:12:21.159Z,1023.81
2018-12-15T01:13:01.717Z,1023.77
2018-12-15T01:13:42.262Z,1023.8
2018-12-15T01:14:22.828Z,1023.79
2018-12-15T01:15:03.394Z,1023.8
2018-12-15T01:15:43.989Z,1023.76
2018-12-15T01:16:24.551Z,1023.77
2018-12-15T01:17:05.145Z,1023.79
2018-12-15T01:17:45.693Z,1023.76
2018-12-15T01:18:26.265Z,1023.76
2018-12-15T01:19:06.819Z,1023.72
2018-12-15T01:19:47.383Z,1023.72
2018-12-15T01:20:27.937Z,1023.75
2018-12-15T01:21:08.494Z,1023.78
2018-12-15T01:21:49.045Z,1023.76
2018-12-15T01:22:29.603Z,1023.76
2018-12-15T01:23:10.158Z,1023.79
2018-12-15T01:23:50.718Z,1023.77
2018-12-15T01:24:31.285Z,1023.75
2018-12-15T01:25:11.843Z,1023.77
2018-12-15T01:25:52.449Z,1023.78
2018-12-15T01:26:32.954Z,1023.78
2018-12-15T01:27:13.507Z,1023.76
2018-12-15T01:27:54.056Z,1023.78
2018-12-15T01:28:34.611Z,1023.8
2018-12-15T01:29:15.200Z,1023.82
2018-12-15T01:29:55.753Z,1023.79
2018-12-15T01:30:36.306Z,1023.77
2018-12-15T01:31:16.857Z,1023.77
2018-12-15T01:31:57.411Z,1023.83
2018-12-15T01:32:37.969Z,1023.82
2018-12-15T01:33:18.774Z,1023.81
2018-12-15T01:33:59.331Z,1023.75
2018-12-15T01:34:39.882Z,1023.79
2018-12-15T01:35:20.447Z,1023.8
2018-12-15T01:36:01.001Z,1023.83
2018-12-15T01:36:41.548Z,1023.83
2018-12-15T01:37:22.103Z,1023.85
2018-12-15T01:38:02.661Z,1023.85
2018-12-15T01:38:43.209Z,1023.83
2018-12-15T01:39:23.765Z,1023.82
2018-12-15T01:40:04.319Z,1023.86
2018-12-15T01:40:44.870Z,1023.84
2018-12-15T01:41:25.459Z,1023.89
2018-12-15T01:42:06.024Z,1023.85
2018-12-15T01:42:46.581Z,1023.86
2018-12-15T01:43:27.138Z,1023.88
2018-12-15T01:44:07.708Z,1023.84
2018-12-15T01:44:48.266Z,1023.86
2018-12-15T01:45:28.821Z,1023.86
2018-12-15T01:46:09.374Z,1023.85
2018-12-15T01:46:49.937Z,1023.88
2018-12-15T01:47:30.511Z,1023.85
2018-12-15T01:48:11.065Z,1023.87
2018-12-15T01:48:51.620Z,1023.88
2018-12-15T01:49:32.179Z,1023.85
2018-12-15T01:50:12.749Z,1023.88
2018-12-15T01:50:53.319Z,1023.84
2018-12-15T01:51:33.925Z,1023.83
2018-12-15T01:52:14.429Z,1023.8
2018-12-15T01:52:54.980Z,1023.77
2018-12-15T01:53:35.603Z,1023.81
2018-12-15T01:54:16.167Z,1023.79
2018-12-15T01:54:56.722Z,1023.79
2018-12-15T01:55:37.277Z,1023.76
2018-12-15T01:56:17.847Z,1023.78
2018-12-15T01:56:58.375Z,1023.77
2018-12-15T01:57:38.931Z,1023.79
2018-12-15T01:58:19.495Z,1023.75
2018-12-15T01:59:00.035Z,1023.78
2018-12-15T01:59:40.587Z,1023.77
2018-12-15T02:00:21.151Z,1023.77
2018-12-15T02:01:01.718Z,1023.76
2018-12-15T02:01:42.280Z,1023.78
2018-12-15T02:02:22.838Z,1023.79
2018-12-15T02:03:03.398Z,1023.78
2018-12-15T02:03:43.976Z,1023.75
2018-12-15T02:04:24.513Z,1023.82
2018-12-15T02:05:05.069Z,1023.8
2018-12-15T02:05:45.625Z,1023.77
2018-12-15T02:06:26.190Z,1023.76
2018-12-15T02:07:06.744Z,1023.74
2018-12-15T02:07:47.289Z,1023.75
2018-12-15T02:08:27.853Z,1023.74
2018-12-15T02:09:08.441Z,1023.75
2018-12-15T02:09:48.983Z,1023.76
2018-12-15T02:10:29.544Z,1023.73
2018-12-15T02:11:10.119Z,1023.78
2018-12-15T02:11:51.019Z,1023.73
2018-12-15T02:12:31.247Z,1023.76
2018-12-15T02:13:11.816Z,1023.75
2018-12-15T02:13:52.383Z,1023.75
2018-12-15T02:14:32.930Z,1023.74
2018-12-15T02:15:13.481Z,1023.74
2018-12-15T02:15:54.038Z,1023.79
2018-12-15T02:16:34.579Z,1023.76
2018-12-15T02:17:15.130Z,1023.79
2018-12-15T02:17:55.693Z,1023.77
2018-12-15T02:18:36.259Z,1023.79
2018-12-15T02:19:16.816Z,1023.76
2018-12-15T02:19:57.366Z,1023.77
2018-12-15T02:20:37.922Z,1023.81
2018-12-15T02:21:18.478Z,1023.77
2018-12-15T02:21:59.037Z,1023.78
2018-12-15T02:22:39.596Z,1023.79
2018-12-15T02:23:20.150Z,1023.78
2018-12-15T02:24:00.717Z,1023.78
2018-12-15T02:24:41.282Z,1023.78
2018-12-15T02:25:21.839Z,1023.77
2018-12-15T02:26:02.398Z,1023.79
2018-12-15T02:26:42.944Z,1023.77
2018-12-15T02:27:23.507Z,1023.7
2018-12-15T02:28:04.058Z,1023.8
2018-12-15T02:28:44.614Z,1023.72
2018-12-15T02:29:25.181Z,1023.73
2018-12-15T02:30:05.744Z,1023.73
2018-12-15T02:30:47.672Z,1023.74
2018-12-15T02:31:26.853Z,1023.72
2018-12-15T02:32:07.440Z,1023.73
2018-12-15T02:32:48.232Z,1023.72
2018-12-15T02:33:28.815Z,1023.73
2018-12-15T02:34:09.359Z,1023.73
2018-12-15T02:34:49.911Z,1023.72
2018-12-15T02:35:30.461Z,1023.7
2018-12-15T02:36:11.022Z,1023.72
2018-12-15T02:36:51.586Z,1023.73
2018-12-15T02:37:32.151Z,1023.72
2018-12-15T02:38:12.700Z,1023.76
2018-12-15T02:38:53.257Z,1023.72
2018-12-15T02:39:33.837Z,1023.77
2018-12-15T02:40:14.396Z,1023.72
2018-12-15T02:40:54.964Z,1023.75
2018-12-15T02:41:35.517Z,1023.74
2018-12-15T02:42:16.063Z,1023.76
2018-12-15T02:42:56.618Z,1023.75
2018-12-15T02:43:37.191Z,1023.83
2018-12-15T02:44:17.750Z,1023.77
2018-12-15T02:44:58.309Z,1023.79
2018-12-15T02:45:38.859Z,1023.73
2018-12-15T02:46:19.411Z,1023.72
2018-12-15T02:46:59.963Z,1023.72
2018-12-15T02:47:41.648Z,1023.71
2018-12-15T02:48:21.065Z,1023.71
2018-12-15T02:49:01.615Z,1023.72
2018-12-15T02:49:42.182Z,1023.75
2018-12-15T02:50:22.730Z,1023.68
2018-12-15T02:51:03.286Z,1023.72
2018-12-15T02:51:43.846Z,1023.73
2018-12-15T02:52:24.395Z,1023.7
2018-12-15T02:53:04.946Z,1023.75
2018-12-15T02:53:45.502Z,1023.67
2018-12-15T02:54:26.061Z,1023.68
2018-12-15T02:55:06.620Z,1023.7
2018-12-15T02:55:47.226Z,1023.66
2018-12-15T02:56:27.718Z,1023.66
2018-12-15T02:57:08.291Z,1023.69
2018-12-15T02:57:48.851Z,1023.7
2018-12-15T02:58:29.416Z,1023.68
2018-12-15T02:59:09.969Z,1023.7
2018-12-15T02:59:50.529Z,1023.68
2018-12-15T03:00:31.086Z,1023.68
2018-12-15T03:01:11.641Z,1023.69
2018-12-15T03:01:52.189Z,1023.73
2018-12-15T03:02:32.762Z,1023.69
2018-12-15T03:03:13.317Z,1023.71
2018-12-15T03:03:53.889Z,1023.73
2018-12-15T03:04:34.457Z,1023.72
2018-12-15T03:05:15.000Z,1023.75
2018-12-15T03:05:55.553Z,1023.72
2018-12-15T03:06:36.124Z,1023.72
2018-12-15T03:07:16.685Z,1023.75
2018-12-15T03:07:57.232Z,1023.77
2018-12-15T03:08:37.790Z,1023.75
2018-12-15T03:09:18.342Z,1023.79
2018-12-15T03:09:58.908Z,1023.77
2018-12-15T03:10:39.466Z,1023.8
2018-12-15T03:11:20.023Z,1023.79
2018-12-15T03:12:00.583Z,1023.77
2018-12-15T03:12:41.147Z,1023.8
2018-12-15T03:13:21.706Z,1023.79
2018-12-15T03:14:02.240Z,1023.74
2018-12-15T03:14:42.821Z,1023.76
2018-12-15T03:15:23.383Z,1023.77
2018-12-15T03:16:03.946Z,1023.76
2018-12-15T03:16:44.495Z,1023.78
2018-12-15T03:17:25.053Z,1023.79
2018-12-15T03:18:05.625Z,1023.8
2018-12-15T03:18:46.182Z,1023.78
2018-12-15T03:19:26.745Z,1023.81
2018-12-15T03:20:07.305Z,1023.82
2018-12-15T03:20:47.863Z,1023.8
2018-12-15T03:21:28.456Z,1023.81
2018-12-15T03:22:09.051Z,1023.8
2018-12-15T03:22:49.597Z,1023.83
2018-12-15T03:23:30.150Z,1023.81
2018-12-15T03:24:10.715Z,1023.84
2018-12-15T03:24:51.275Z,1023.85
2018-12-15T03:25:31.817Z,1023.79
2018-12-15T03:26:12.377Z,1023.82
2018-12-15T03:26:52.934Z,1023.83
2018-12-15T03:27:33.491Z,1023.85
2018-12-15T03:28:14.053Z,1023.87
2018-12-15T03:28:54.606Z,1023.83
2018-12-15T03:29:35.171Z,1023.87
2018-12-15T03:30:15.728Z,1023.87
2018-12-15T03:30:56.293Z,1023.85
2018-12-15T03:31:36.829Z,1023.85
2018-12-15T03:32:17.376Z,1023.85
2018-12-15T03:32:57.929Z,1023.88
2018-12-15T03:33:38.474Z,1023.85
2018-12-15T03:34:19.025Z,1023.88
2018-12-15T03:34:59.583Z,1023.85
2018-12-15T03:35:40.134Z,1023.87
2018-12-15T03:36:20.681Z,1023.82
2018-12-15T03:37:01.230Z,1023.86
2018-12-15T03:37:41.784Z,1023.91
2018-12-15T03:38:22.344Z,1023.84
2018-12-15T03:39:02.892Z,1023.83
2018-12-15T03:39:43.464Z,1023.81
2018-12-15T03:40:24.016Z,1023.83
2018-12-15T03:41:04.601Z,1023.83
2018-12-15T03:41:45.151Z,1023.89
2018-12-15T03:42:25.714Z,1023.84
2018-12-15T03:43:06.286Z,1023.87
2018-12-15T03:43:46.841Z,1023.85
2018-12-15T03:44:27.399Z,1023.85
2018-12-15T03:45:07.973Z,1023.84
2018-12-15T03:45:48.538Z,1023.89
2018-12-15T03:46:29.089Z,1023.87
2018-12-15T03:47:09.662Z,1023.85
2018-12-15T03:47:56.115Z,1023.83
2018-12-15T03:48:30.775Z,1023.83
2018-12-15T03:49:11.335Z,1023.82
2018-12-15T03:49:51.891Z,1023.83
2018-12-15T03:50:32.446Z,1023.84
2018-12-15T03:51:12.996Z,1023.86
2018-12-15T03:51:53.571Z,1023.9
2018-12-15T03:52:34.127Z,1023.84
2018-12-15T03:53:14.683Z,1023.86
2018-12-15T03:53:55.241Z,1023.89
2018-12-15T03:54:35.812Z,1023.87
2018-12-15T03:55:16.365Z,1023.88
2018-12-15T03:55:56.935Z,1023.89
2018-12-15T03:56:37.490Z,1023.86
2018-12-15T03:57:18.054Z,1023.92
2018-12-15T03:57:58.611Z,1023.87
2018-12-15T03:58:39.160Z,1023.87
2018-12-15T03:59:19.726Z,1023.85
2018-12-15T04:00:00.294Z,1023.83
2018-12-15T04:00:40.844Z,1023.86
2018-12-15T04:01:21.406Z,1023.84
2018-12-15T04:02:01.981Z,1023.85
2018-12-15T04:02:42.556Z,1023.84
2018-12-15T04:03:23.086Z,1023.85
2018-12-15T04:04:03.646Z,1023.83
2018-12-15T04:04:44.218Z,1023.85
2018-12-15T04:05:24.770Z,1023.88
2018-12-15T04:06:05.313Z,1023.83
2018-12-15T04:06:45.869Z,1023.81
2018-12-15T04:07:26.420Z,1023.88
2018-12-15T04:08:06.969Z,1023.82
2018-12-15T04:08:47.523Z,1023.84
2018-12-15T04:09:28.072Z,1023.84
2018-12-15T04:10:08.620Z,1023.82
2018-12-15T04:10:49.176Z,1023.83
2018-12-15T04:11:29.724Z,1023.83
2018-12-15T04:12:10.279Z,1023.83
2018-12-15T04:12:50.819Z,1023.85
2018-12-15T04:13:31.407Z,1023.86
2018-12-15T04:14:11.957Z,1023.84
2018-12-15T04:14:52.516Z,1023.85
2018-12-15T04:15:33.096Z,1023.83
2018-12-15T04:16:13.647Z,1023.84
2018-12-15T04:16:54.215Z,1023.82
2018-12-15T04:17:34.801Z,1023.81
2018-12-15T04:18:15.360Z,1023.81
2018-12-15T04:18:55.910Z,1023.84
2018-12-15T04:19:36.476Z,1023.82
2018-12-15T04:20:17.036Z,1023.82
2018-12-15T04:20:57.610Z,1023.84
2018-12-15T04:21:38.180Z,1023.84
2018-12-15T04:22:18.723Z,1023.84
2018-12-15T04:22:59.282Z,1023.88
2018-12-15T04:23:39.840Z,1023.84
2018-12-15T04:24:20.489Z,1023.88
2018-12-15T04:25:01.044Z,1023.86
2018-12-15T04:25:41.612Z,1023.87
2018-12-15T04:26:22.172Z,1023.88
2018-12-15T04:27:02.734Z,1023.81
2018-12-15T04:27:43.305Z,1023.83
2018-12-15T04:28:23.866Z,1023.77
2018-12-15T04:29:04.417Z,1023.86
2018-12-15T04:29:44.976Z,1023.81
2018-12-15T04:30:25.539Z,1023.79
2018-12-15T04:31:06.088Z,1023.8
2018-12-15T04:31:46.651Z,1023.81
2018-12-15T04:32:27.200Z,1023.83
2018-12-15T04:33:07.988Z,1023.76
2018-12-15T04:33:48.523Z,1023.79
2018-12-15T04:34:29.074Z,1023.81
2018-12-15T04:35:09.625Z,1023.78
2018-12-15T04:35:50.172Z,1023.8
2018-12-15T04:36:30.731Z,1023.81
2018-12-15T04:37:11.304Z,1023.8
2018-12-15T04:37:51.853Z,1023.83
2018-12-15T04:38:32.424Z,1023.75
2018-12-15T04:39:12.978Z,1023.79
2018-12-15T04:39:53.531Z,1023.82
2018-12-15T04:40:34.101Z,1023.78
2018-12-15T04:41:14.655Z,1023.8
2018-12-15T04:41:55.213Z,1023.77
2018-12-15T04:42:35.766Z,1023.8
2018-12-15T04:43:16.325Z,1023.77
2018-12-15T04:43:56.874Z,1023.82
2018-12-15T04:44:37.420Z,1023.81
2018-12-15T04:45:17.996Z,1023.83
2018-12-15T04:45:58.560Z,1023.77
2018-12-15T04:46:39.129Z,1023.81
2018-12-15T04:47:19.692Z,1023.81
2018-12-15T04:48:00.253Z,1023.82
2018-12-15T04:48:40.819Z,1023.82
2018-12-15T04:49:21.382Z,1023.87
2018-12-15T04:50:01.928Z,1023.84
2018-12-15T04:50:42.474Z,1023.88
2018-12-15T04:51:23.029Z,1023.86
2018-12-15T04:52:03.587Z,1023.88
2018-12-15T04:52:44.143Z,1023.91
2018-12-15T04:53:24.701Z,1023.87
2018-12-15T04:54:05.267Z,1023.87
2018-12-15T04:54:45.819Z,1023.87
2018-12-15T04:55:26.382Z,1023.88
2018-12-15T04:56:06.933Z,1023.92
2018-12-15T04:56:47.501Z,1023.88
2018-12-15T04:57:28.075Z,1023.91
2018-12-15T04:58:08.630Z,1023.93
2018-12-15T04:58:49.186Z,1023.9
2018-12-15T04:59:29.743Z,1023.92
2018-12-15T05:00:10.348Z,1023.87
2018-12-15T05:00:50.846Z,1023.91
2018-12-15T05:01:31.399Z,1023.9
2018-12-15T05:02:11.966Z,1023.93
2018-12-15T05:02:52.522Z,1023.9
2018-12-15T05:03:33.086Z,1023.91
2018-12-15T05:04:13.635Z,1023.91
2018-12-15T05:04:54.203Z,1023.92
2018-12-15T05:05:34.783Z,1023.93
2018-12-15T05:06:15.338Z,1023.88
2018-12-15T05:06:55.888Z,1023.89
2018-12-15T05:07:36.442Z,1023.9
2018-12-15T05:08:16.989Z,1023.88
2018-12-15T05:08:57.556Z,1023.9
2018-12-15T05:09:38.100Z,1023.85
2018-12-15T05:10:18.658Z,1023.81
2018-12-15T05:10:59.203Z,1023.85
2018-12-15T05:11:39.749Z,1023.88
2018-12-15T05:12:20.309Z,1023.87
2018-12-15T05:13:00.864Z,1023.85
2018-12-15T05:13:41.433Z,1023.85
2018-12-15T05:14:22.006Z,1023.86
2018-12-15T05:15:02.576Z,1023.87
2018-12-15T05:15:43.141Z,1023.86
2018-12-15T05:16:23.699Z,1023.88
2018-12-15T05:17:04.268Z,1023.82
2018-12-15T05:17:44.838Z,1023.88
2018-12-15T05:18:25.387Z,1023.9
2018-12-15T05:19:05.956Z,1023.84
2018-12-15T05:19:46.508Z,1023.9
2018-12-15T05:20:27.076Z,1023.89
2018-12-15T05:21:07.639Z,1023.91
2018-12-15T05:21:48.183Z,1023.9
2018-12-15T05:22:28.735Z,1023.91
2018-12-15T05:23:09.286Z,1023.87
2018-12-15T05:23:49.842Z,1023.91
2018-12-15T05:24:30.409Z,1023.93
2018-12-15T05:25:10.967Z,1023.9
2018-12-15T05:25:51.520Z,1023.91
2018-12-15T05:26:32.073Z,1023.86
2018-12-15T05:27:12.628Z,1023.91
2018-12-15T05:27:53.182Z,1023.91
2018-12-15T05:28:33.736Z,1023.86
2018-12-15T05:29:14.311Z,1023.89
2018-12-15T05:29:54.872Z,1023.91
2018-12-15T05:30:35.462Z,1023.94
2018-12-15T05:31:16.009Z,1023.88
2018-12-15T05:31:56.566Z,1023.91
2018-12-15T05:32:37.137Z,1023.91
2018-12-15T05:33:17.706Z,1023.86
2018-12-15T05:33:58.270Z,1023.89
2018-12-15T05:34:38.824Z,1023.91
2018-12-15T05:35:19.406Z,1023.88
2018-12-15T05:35:59.969Z,1023.9
2018-12-15T05:36:40.520Z,1023.94
2018-12-15T05:37:21.071Z,1023.96
2018-12-15T05:38:01.623Z,1023.9
2018-12-15T05:38:42.182Z,1023.98
2018-12-15T05:39:22.744Z,1023.95
2018-12-15T05:40:03.290Z,1023.92
2018-12-15T05:40:43.840Z,1023.93
2018-12-15T05:41:24.446Z,1023.92
2018-12-15T05:42:04.940Z,1023.96
2018-12-15T05:42:45.504Z,1023.95
2018-12-15T05:43:26.059Z,1023.96
2018-12-15T05:44:06.606Z,1023.96
2018-12-15T05:44:47.159Z,1023.91
2018-12-15T05:45:27.715Z,1023.95
2018-12-15T05:46:08.275Z,1023.9
2018-12-15T05:46:49.109Z,1023.94
2018-12-15T05:47:29.389Z,1023.96
2018-12-15T05:48:09.950Z,1023.96
2018-12-15T05:48:50.511Z,1023.94
2018-12-15T05:49:31.074Z,1023.98
2018-12-15T05:50:11.629Z,1023.95
2018-12-15T05:50:52.187Z,1023.98
2018-12-15T05:51:32.748Z,1023.98
2018-12-15T05:52:13.307Z,1023.98
2018-12-15T05:52:53.858Z,1023.95
2018-12-15T05:53:34.411Z,1024
2018-12-15T05:54:14.960Z,1023.95
2018-12-15T05:54:55.537Z,1023.97
2018-12-15T05:55:36.087Z,1024.03
2018-12-15T05:56:16.663Z,1023.97
2018-12-15T05:56:57.231Z,1023.95
2018-12-15T05:57:37.794Z,1023.98
2018-12-15T05:58:18.370Z,1023.96
2018-12-15T05:58:58.918Z,1023.97
2018-12-15T05:59:39.465Z,1024
2018-12-15T06:00:20.019Z,1023.98
2018-12-15T06:01:00.569Z,1023.98
2018-12-15T06:01:41.131Z,1023.96
2018-12-15T06:02:21.689Z,1023.99
2018-12-15T06:03:02.230Z,1023.99
2018-12-15T06:03:42.780Z,1023.97
2018-12-15T06:04:23.331Z,1023.95
2018-12-15T06:05:03.885Z,1023.96
2018-12-15T06:05:44.450Z,1023.98
2018-12-15T06:06:25.020Z,1023.98
2018-12-15T06:07:05.586Z,1023.98
2018-12-15T06:07:46.141Z,1023.99
2018-12-15T06:08:26.698Z,1023.98
2018-12-15T06:09:07.256Z,1023.98
2018-12-15T06:09:47.812Z,1023.95
2018-12-15T06:10:28.445Z,1023.96
2018-12-15T06:11:09.016Z,1023.95
2018-12-15T06:11:49.567Z,1023.97
2018-12-15T06:12:30.169Z,1023.97
2018-12-15T06:13:10.741Z,1023.97
2018-12-15T06:13:51.311Z,1023.92
2018-12-15T06:14:31.861Z,1023.94
2018-12-15T06:15:12.423Z,1023.97
2018-12-15T06:15:52.979Z,1023.99
2018-12-15T06:16:33.539Z,1024.03
2018-12-15T06:17:14.093Z,1023.97
2018-12-15T06:17:54.641Z,1024
2018-12-15T06:18:35.192Z,1024.01
2018-12-15T06:19:15.746Z,1024.01
2018-12-15T06:19:56.298Z,1024.02
2018-12-15T06:20:36.851Z,1024
2018-12-15T06:21:17.419Z,1024
2018-12-15T06:21:57.956Z,1023.97
2018-12-15T06:22:38.507Z,1024
2018-12-15T06:23:19.067Z,1024
2018-12-15T06:23:59.622Z,1024.04
2018-12-15T06:24:40.198Z,1024.02
2018-12-15T06:25:20.762Z,1024.02
2018-12-15T06:26:01.321Z,1024.05
2018-12-15T06:26:41.867Z,1024.02
2018-12-15T06:27:22.431Z,1024.03
2018-12-15T06:28:02.993Z,1024.05
2018-12-15T06:28:43.552Z,1024.06
2018-12-15T06:29:24.099Z,1024.07
2018-12-15T06:30:04.664Z,1024.06
2018-12-15T06:30:45.207Z,1024.08
2018-12-15T06:31:25.772Z,1024.09
2018-12-15T06:32:06.332Z,1024.05
2018-12-15T06:32:46.901Z,1024.1
2018-12-15T06:33:27.457Z,1024.06
2018-12-15T06:34:08.035Z,1024.09
2018-12-15T06:34:48.610Z,1024.09
2018-12-15T06:35:29.167Z,1024.11
2018-12-15T06:36:09.728Z,1024.09
2018-12-15T06:36:50.276Z,1024.13
2018-12-15T06:37:30.836Z,1024.16
2018-12-15T06:38:11.423Z,1024.11
2018-12-15T06:38:51.993Z,1024.09
2018-12-15T06:39:32.542Z,1024.13
2018-12-15T06:40:13.102Z,1024.14
2018-12-15T06:40:53.673Z,1024.2
2018-12-15T06:41:34.248Z,1024.16
2018-12-15T06:42:14.789Z,1024.17
2018-12-15T06:42:55.359Z,1024.17
2018-12-15T06:43:35.923Z,1024.18
2018-12-15T06:44:16.470Z,1024.18
2018-12-15T06:44:57.070Z,1024.17
2018-12-15T06:45:37.631Z,1024.2
2018-12-15T06:46:18.190Z,1024.18
2018-12-15T06:46:58.759Z,1024.22
2018-12-15T06:47:39.327Z,1024.24
2018-12-15T06:48:19.884Z,1024.21
2018-12-15T06:49:00.449Z,1024.22
2018-12-15T06:49:41.023Z,1024.2
2018-12-15T06:50:21.568Z,1024.25
2018-12-15T06:51:02.130Z,1024.25
2018-12-15T06:51:42.719Z,1024.17
2018-12-15T06:52:23.277Z,1024.25
2018-12-15T06:53:03.832Z,1024.23
2018-12-15T06:53:44.389Z,1024.29
2018-12-15T06:54:24.954Z,1024.25
2018-12-15T06:55:05.520Z,1024.27
2018-12-15T06:55:46.074Z,1024.26
2018-12-15T06:56:26.624Z,1024.28
2018-12-15T06:57:07.926Z,1024.28
2018-12-15T06:57:47.760Z,1024.22
2018-12-15T06:58:28.308Z,1024.32
2018-12-15T06:59:08.870Z,1024.24
2018-12-15T06:59:49.428Z,1024.27
2018-12-15T07:00:29.981Z,1024.29
2018-12-15T07:01:10.546Z,1024.29
2018-12-15T07:01:51.105Z,1024.26
2018-12-15T07:02:31.660Z,1024.26
2018-12-15T07:03:12.244Z,1024.24
2018-12-15T07:03:52.794Z,1024.21
2018-12-15T07:04:33.359Z,1024.25
2018-12-15T07:05:13.928Z,1024.26
2018-12-15T07:05:54.497Z,1024.22
2018-12-15T07:06:35.059Z,1024.23
2018-12-15T07:07:15.618Z,1024.24
2018-12-15T07:07:56.177Z,1024.21
2018-12-15T07:08:36.746Z,1024.29
2018-12-15T07:09:17.302Z,1024.23
2018-12-15T07:09:57.864Z,1024.25
2018-12-15T07:10:38.439Z,1024.26
2018-12-15T07:11:19.002Z,1024.27
2018-12-15T07:11:59.549Z,1024.25
2018-12-15T07:12:40.112Z,1024.28
2018-12-15T07:13:20.668Z,1024.28
2018-12-15T07:14:01.231Z,1024.29
2018-12-15T07:14:41.794Z,1024.27
2018-12-15T07:15:22.358Z,1024.28
2018-12-15T07:16:02.912Z,1024.27
2018-12-15T07:16:43.482Z,1024.26
2018-12-15T07:17:24.041Z,1024.26
2018-12-15T07:18:04.601Z,1024.27
2018-12-15T07:18:45.149Z,1024.31
2018-12-15T07:19:25.767Z,1024.33
2018-12-15T07:20:06.318Z,1024.31
2018-12-15T07:20:46.868Z,1024.28
2018-12-15T07:21:27.419Z,1024.33
2018-12-15T07:22:07.967Z,1024.32
2018-12-15T07:22:48.528Z,1024.31
2018-12-15T07:23:29.078Z,1024.31
2018-12-15T07:24:09.637Z,1024.33
2018-12-15T07:24:50.187Z,1024.32
2018-12-15T07:25:30.747Z,1024.33
2018-12-15T07:26:11.294Z,1024.36
2018-12-15T07:26:51.852Z,1024.36
2018-12-15T07:27:32.411Z,1024.33
2018-12-15T07:28:12.973Z,1024.36
2018-12-15T07:28:53.526Z,1024.32
2018-12-15T07:29:34.088Z,1024.29
2018-12-15T07:30:14.658Z,1024.23
2018-12-15T07:30:55.217Z,1024.32
2018-12-15T07:31:35.778Z,1024.32
2018-12-15T07:32:16.330Z,1024.33
2018-12-15T07:32:56.884Z,1024.32
2018-12-15T07:33:37.431Z,1024.29
2018-12-15T07:34:17.986Z,1024.32
2018-12-15T07:35:01.020Z,1024.28
2018-12-15T07:35:39.095Z,1024.33
2018-12-15T07:36:19.658Z,1024.3
2018-12-15T07:37:00.222Z,1024.3
2018-12-15T07:37:40.772Z,1024.22
2018-12-15T07:38:21.337Z,1024.32
2018-12-15T07:39:01.898Z,1024.32
2018-12-15T07:39:42.479Z,1024.33
2018-12-15T07:40:23.035Z,1024.34
2018-12-15T07:41:03.586Z,1024.24
2018-12-15T07:41:44.140Z,1024.28
2018-12-15T07:42:24.687Z,1024.33
2018-12-15T07:43:05.253Z,1024.31
2018-12-15T07:43:45.804Z,1024.29
2018-12-15T07:44:26.472Z,1024.32
2018-12-15T07:45:07.028Z,1024.29
2018-12-15T07:45:47.586Z,1024.32
2018-12-15T07:46:28.370Z,1024.35
2018-12-15T07:47:09.203Z,1024.31
2018-12-15T07:47:49.840Z,1024.37
2018-12-15T07:48:30.972Z,1024.33
2018-12-15T07:49:12.784Z,1024.35
2018-12-15T07:49:53.028Z,1024.38
2018-12-15T07:50:35.068Z,1024.33
2018-12-15T07:51:16.940Z,1024.37
2018-12-15T07:51:59.710Z,1024.35
2018-12-15T07:52:40.865Z,1024.35
2018-12-15T07:53:22.134Z,1024.36
2018-12-15T07:54:06.127Z,1024.39
2018-12-15T07:54:47.215Z,1024.37
2018-12-15T07:55:28.553Z,1024.38
2018-12-15T07:56:09.336Z,1024.39
2018-12-15T07:56:50.023Z,1024.39
2018-12-15T07:57:30.578Z,1024.38
2018-12-15T07:58:11.193Z,1024.43
2018-12-15T07:58:51.758Z,1024.37
2018-12-15T07:59:32.299Z,1024.39
2018-12-15T08:00:12.853Z,1024.39
2018-12-15T08:00:53.398Z,1024.43
2018-12-15T08:01:33.964Z,1024.42
2018-12-15T08:02:14.503Z,1024.45
2018-12-15T08:05:43.432Z,1024.41
2018-12-15T08:06:23.971Z,1024.42
2018-12-15T08:07:04.531Z,1024.43
2018-12-15T08:07:45.143Z,1024.45
2018-12-15T08:08:25.694Z,1024.4
2018-12-15T08:09:06.260Z,1024.41
2018-12-15T08:09:46.820Z,1024.41
2018-12-15T08:10:27.379Z,1024.42
2018-12-15T08:11:07.933Z,1024.4
2018-12-15T08:11:48.496Z,1024.39
2018-12-15T08:12:29.057Z,1024.42
2018-12-15T08:13:09.603Z,1024.45
2018-12-15T08:13:50.154Z,1024.42
2018-12-15T08:14:30.755Z,1024.45
2018-12-15T08:15:11.325Z,1024.42